Date,TemperatureHighF,TemperatureAvgF,TemperatureLowF,DewpointHighF,DewpointAvgF,DewpointLowF,HumidityHigh,HumidityAvg,HumidityLow,PressureMaxIn,PressureMinIn,WindSpeedMaxMPH,WindSpeedAvgMPH,GustSpeedMaxMPH,PrecipitationSumIn
2013-1-1,30,28,21,19,16,8,70,61,55,29.82,29.72,21,8,21,0.00
2013-1-2,27,19,14,8,-4,-23,57,39,10,29.97,29.79,19,6,19,0.00
2013-1-3,35,22,11,4,-3,-18,60,36,10,29.97,29.88,29,6,29,0.04
2013-1-4,30,25,22,9,5,-4,52,42,24,29.98,29.89,30,14,30,0.04
2013-1-5,40,28,22,10,1,-15,54,33,10,30.14,29.94,29,8,29,0.07
2013-1-6,37,33,29,18,10,3,56,39,27,29.96,29.80,16,6,16,0.00
2013-1-7,32,28,21,18,12,5,59,51,32,30.20,29.96,22,7,22,0.00
2013-1-8,46,33,22,11,-2,-16,55,26,10,30.16,30.06,11,3,11,0.00
2013-1-9,44,37,27,32,16,5,67,43,23,30.21,30.01,32,8,32,0.09
2013-1-10,48,38,29,17,1,-12,54,24,10,30.37,30.18,22,3,26,0.00
2013-1-11,45,40,36,42,20,-3,91,52,17,30.18,29.86,22,7,22,0.21
2013-1-12,64,53,45,55,46,41,99,80,45,29.97,29.88,12,3,12,0.01
2013-1-13,68,59,53,48,40,32,78,51,27,29.89,29.76,24,7,24,0.09
2013-1-14,55,39,30,52,27,14,90,63,43,30.14,29.76,57,16,57,0.17
2013-1-15,31,28,27,22,15,14,72,58,54,30.12,29.88,9,2,9,0.00
2013-1-16,34,32,30,29,24,9,84,73,37,29.89,29.67,17,4,17,0.00
2013-1-17,32,30,28,18,14,6,66,51,34,29.95,29.78,23,6,23,0.00
2013-1-18,32,24,15,15,-9,-25,62,28,10,30.20,29.88,32,10,32,0.01
2013-1-19,52,41,28,-3,-11,-22,10,10,10,30.07,29.79,27,11,27,0.06
2013-1-20,44,36,19,-4,-10,-21,36,12,10,29.86,29.71,38,12,38,2.22
2013-1-21,27,19,8,8,0,-13,59,45,17,29.85,29.64,24,7,24,0.04
2013-1-22,12,5,1,-6,-16,-30,53,37,13,29.96,29.73,26,9,26,0.00
2013-1-23,13,7,-1,-5,-20,-37,52,31,10,29.99,29.80,19,5,19,0.00
2013-1-24,19,11,4,-3,-18,-37,56,32,10,30.22,29.77,22,6,22,0.00
2013-1-25,17,10,4,6,-6,-21,61,47,25,30.21,29.76,17,4,17,0.00
2013-1-26,24,19,16,10,5,1,60,54,47,30.16,29.80,16,6,16,0.00
2013-1-27,38,24,14,10,-5,-21,59,33,10,30.27,30.13,10,3,10,0.04
2013-1-28,49,39,26,46,30,0,89,73,29,30.13,29.84,30,9,30,0.31
2013-1-29,72,54,49,53,45,37,99,75,40,29.92,29.74,106,8,106,0.05
2013-1-30,66,55,48,49,42,33,87,64,38,29.74,29.13,38,9,38,1.23
2013-1-31,48,26,19,42,7,-13,80,46,19,29.61,29.10,45,17,45,3.43
2013-2-1,20,12,8,6,-6,-20,62,44,21,30.03,29.57,26,10,26,0.02
2013-2-2,23,14,3,12,-2,-14,68,50,24,30.03,29.73,19,6,19,0.00
2013-2-3,28,21,13,12,7,0,68,56,31,29.73,29.57,29,6,29,0.00
2013-2-4,30,20,12,12,1,-21,60,46,10,29.81,29.66,27,7,27,0.08
2013-2-5,34,29,23,25,20,11,78,69,46,29.72,29.60,19,4,19,0.00
2013-2-6,29,24,16,19,10,4,74,55,37,30.10,29.71,18,6,18,0.00
2013-2-7,35,26,14,11,8,3,68,48,31,30.10,29.87,22,7,22,0.06
2013-2-8,37,29,21,29,20,11,80,68,47,29.88,29.61,21,6,21,4.10
2013-2-9,32,21,16,13,1,-20,69,45,10,30.14,29.83,0,0,0,0.37
2013-2-10,43,29,11,3,-10,-23,59,24,10,30.13,29.87,0,0,0,0.00
2013-2-11,60,44,32,41,17,-16,85,43,10,29.88,29.52,0,0,0,0.69
2013-2-12,43,34,29,11,6,-11,43,31,10,29.83,29.69,0,0,0,0.11
2013-2-13,42,32,25,23,9,-13,75,44,10,29.75,29.49,0,0,0,0.00
2013-2-14,41,33,24,21,10,2,72,41,19,29.76,29.62,0,0,0,0.09
2013-2-15,43,34,27,23,13,-8,65,46,12,29.83,29.73,0,0,0,0.00
2013-2-16,29,23,15,17,2,-21,64,43,10,29.80,29.66,0,0,0,0.00
2013-2-17,20,15,12,4,-4,-18,60,45,17,29.97,29.65,0,0,0,0.14
2013-2-18,45,26,7,-8,-16,-28,41,18,10,30.05,29.80,0,0,0,0.01
2013-2-19,44,33,20,29,10,-17,71,44,10,29.80,29.47,0,0,0,0.17
2013-2-20,20,16,14,6,-4,-18,58,41,20,29.92,29.66,0,0,0,0.32
2013-2-21,25,17,13,0,-4,-10,51,40,21,30.09,29.88,0,0,0,0.09
2013-2-22,26,23,18,17,6,-4,67,50,28,30.05,29.86,0,0,0,0.01
2013-2-23,52,35,26,25,21,12,71,58,21,29.87,29.65,14,1,14,0.18
2013-2-24,35,27,24,24,12,5,67,53,42,29.90,29.64,24,8,24,0.00
2013-2-25,46,32,23,12,-2,-16,57,28,10,29.99,29.88,60,4,60,0.00
2013-2-26,33,32,30,27,11,-5,79,46,20,29.92,29.47,27,7,27,0.00
2013-2-27,40,34,31,32,26,18,85,71,45,29.52,29.42,21,4,21,0.17
2013-2-28,33,30,28,26,19,12,80,64,45,29.57,29.45,21,8,21,0.07
2013-3-1,32,27,22,22,15,8,75,61,42,29.72,29.57,20,8,20,0.01
2013-3-2,29,22,19,10,6,-3,63,50,27,29.70,29.64,20,8,20,0.06
2013-3-3,28,21,18,10,5,-6,62,49,24,29.74,29.64,26,10,26,0.00
2013-3-4,34,23,17,4,-4,-20,55,33,10,29.84,29.73,24,10,24,0.00
2013-3-5,50,32,15,8,-5,-17,55,24,10,29.85,29.52,25,6,25,0.00
2013-3-6,42,32,27,25,16,2,77,54,21,29.88,29.51,23,6,23,0.17
2013-3-7,41,33,29,20,12,0,65,43,20,30.02,29.86,21,7,21,0.00
2013-3-8,38,30,25,14,11,2,58,47,22,30.16,29.99,22,8,22,0.00
2013-3-9,59,39,18,17,2,-11,66,30,10,30.17,30.05,12,3,12,0.00
2013-3-10,60,48,41,60,39,-9,11,2,11,30.05,29.91,17,8,20,0.00
2013-3-11,53,49,46,54,46,-4,65,11,10,29.93,29.63,37,12,37,0.43
2013-3-12,49,38,32,43,26,9,85,65,37,29.80,29.62,26,8,26,0.39
2013-3-13,35,29,23,20,10,-10,68,46,16,29.85,29.72,40,9,40,0.06
2013-3-14,34,25,20,6,-6,-21,52,28,10,29.93,29.84,36,13,36,0.25
2013-3-15,46,35,25,21,1,-13,49,24,11,29.90,29.63,24,8,24,0.00
2013-3-16,39,35,32,34,28,21,84,75,50,29.74,29.48,21,4,21,0.11
2013-3-17,34,29,24,28,11,-3,84,49,21,29.99,29.73,10,2,10,0.00
2013-3-18,30,27,24,24,15,3,79,60,33,29.98,29.61,34,13,34,0.02
2013-3-19,44,34,27,31,6,-18,85,41,10,29.75,29.54,38,13,38,0.35
2013-3-20,37,29,22,14,-6,-20,61,26,10,29.75,29.59,29,10,29,0.02
2013-3-21,26,20,14,9,-10,-28,58,31,10,29.66,29.58,27,9,27,0.02
2013-3-22,32,24,20,6,0,-20,53,36,10,29.79,29.63,24,9,24,0.00
2013-3-23,44,29,17,9,-3,-16,58,30,10,29.82,29.75,22,5,22,0.00
2013-3-24,35,29,21,17,2,-11,63,35,13,29.80,29.39,17,5,17,0.00
2013-3-25,37,30,26,23,20,12,76,65,48,29.53,29.32,17,4,17,0.19
2013-3-26,40,32,27,23,16,-2,77,54,18,29.84,29.52,21,4,21,0.08
2013-3-27,38,32,28,22,14,-6,73,51,16,29.93,29.82,25,9,25,0.04
2013-3-28,39,32,29,21,17,12,67,53,34,30.04,29.88,21,8,21,0.04
2013-3-29,49,39,31,16,1,-14,53,25,10,30.05,29.96,21,4,21,0.00
2013-3-30,54,41,26,10,-5,-15,42,16,10,30.04,29.89,14,2,14,0.00
2013-3-31,44,42,37,39,15,-14,84,46,10,29.89,29.57,18,6,18,0.22
2013-10-28,62,45,32,62,30,-5,59,28,12,30.11,29.94,8,2,8,0.00
2013-10-29,61,47,33,61,28,-5,57,26,10,30.19,30.11,11,2,11,0.00
2013-10-30,66,52,41,42,27,14,64,40,13,30.10,29.98,8,3,8,0.00
2013-10-31,66,58,0,48,42,-12,72,58,33,29.98,29.49,17,6,17,0.13
2013-11-1,64,57,47,64,35,6,67,36,11,29.59,29.33,19,10,19,0.90
2013-11-2,52,46,41,31,25,14,67,46,24,29.75,29.53,14,6,14,0.04
2013-11-3,49,39,29,31,2,-11,68,25,10,30.23,29.76,15,5,15,0.01
2013-11-4,41,32,24,11,-8,-18,50,20,10,30.35,30.22,17,6,17,0.00
2013-11-5,53,40,31,22,-4,-14,47,17,10,30.34,30.19,19,6,19,0.00
2013-11-6,72,54,38,35,22,6,71,35,10,30.20,29.81,21,7,21,0.00
2013-11-7,60,44,34,46,24,-3,75,49,19,29.92,29.73,27,9,27,0.34
2013-11-8,41,34,27,14,3,-14,45,28,10,30.08,29.88,32,9,32,0.00
2013-11-9,56,41,25,12,1,-8,53,24,10,30.08,29.80,29,8,29,0.08
2013-11-10,50,42,35,13,2,-9,32,19,10,30.05,29.79,34,14,34,0.22
2013-11-11,51,39,28,26,8,-9,59,32,10,30.06,29.84,18,7,29,0.01
2013-11-12,39,28,23,27,8,-19,71,47,10,30.18,29.84,17,8,22,0.05
2013-11-13,34,26,22,9,0,-18,55,35,10,30.24,30.12,21,8,21,0.00
2013-11-14,52,36,23,6,-6,-17,47,19,10,30.13,30.01,19,7,21,0.00
2013-11-15,54,44,36,25,-5,-15,48,13,10,30.05,29.98,23,5,29,0.00
2013-11-16,59,46,40,38,29,12,69,54,15,30.08,29.94,21,5,23,0.01
2013-11-17,59,54,48,46,40,36,69,60,42,29.97,29.50,25,10,29,0.22
2013-11-18,56,48,35,46,11,-10,69,29,10,29.81,29.50,36,17,40,0.71
2013-11-19,34,31,26,8,5,1,46,33,23,30.16,29.81,27,8,27,0.01
2013-11-20,43,32,22,8,-8,-19,51,22,10,30.27,30.15,18,6,22,0.00
2013-11-21,50,38,29,22,12,-14,54,36,10,30.27,30.10,14,6,14,0.00
2013-11-22,52,47,35,44,36,22,76,66,43,30.10,29.88,25,6,25,0.27
2013-11-23,35,28,15,22,3,-26,62,38,10,30.01,29.87,28,11,33,0.07
2013-11-24,19,15,10,-1,-10,-23,47,32,16,30.21,30.00,31,10,31,0.11
2013-11-25,37,23,8,-10,-15,-26,42,21,10,30.21,30.01,14,4,17,0.00
2013-11-26,35,32,30,27,18,-17,78,61,10,30.02,29.49,14,2,16,0.89
2013-11-27,33,26,18,27,16,-1,80,66,42,29.83,29.45,17,0,17,0.01
2013-11-28,27,21,15,6,-3,-14,49,35,17,30.17,29.83,10,1,11,0.00
2013-11-29,35,25,18,6,-2,-19,52,33,10,30.40,30.16,11,3,12,0.02
2013-11-30,29,24,18,7,4,-2,56,43,27,30.39,30.05,20,8,20,0.00
2013-12-1,47,36,24,12,2,-12,49,28,10,30.05,29.80,12,5,17,0.02
2013-12-2,50,41,33,18,12,4,45,32,15,29.80,29.66,8,2,10,0.00
2013-12-3,56,43,36,32,19,-1,70,42,10,29.78,29.67,14,2,14,0.02
2013-12-4,61,46,37,32,23,13,59,43,15,29.87,29.77,17,5,17,0.00
2013-12-5,65,54,44,52,42,32,85,65,34,29.83,29.75,17,5,17,0.47
2013-12-6,44,33,28,39,27,21,82,79,76,30.00,29.80,12,3,13,0.39
2013-12-7,28,24,16,22,12,4,78,62,42,30.29,29.98,0,0,0,0.00
2013-12-8,23,19,14,15,7,1,71,59,45,30.29,29.95,0,0,0,0.00
2013-12-9,37,31,24,32,21,13,83,67,46,29.96,29.81,21,5,27,0.01
2013-12-10,29,24,19,13,1,-24,62,40,11,29.95,29.77,25,10,29,0.00
2013-12-11,31,23,16,-6,-17,-24,36,18,10,30.08,29.95,21,9,23,0.00
2013-12-12,26,22,15,-23,-23,-23,10,5,10,30.08,29.95,28,11,31,0.11
2013-12-13,35,24,15,-11,-20,-30,22,10,10,30.05,29.92,25,7,32,0.00
2013-12-14,32,29,26,25,9,-22,77,52,10,30.03,29.52,21,8,24,0.00
2013-12-15,35,27,21,30,16,-1,81,63,37,29.73,29.43,30,11,33,0.04
2013-12-16,24,20,14,15,4,-3,67,50,34,29.89,29.73,27,5,27,0.00
2013-12-17,34,29,24,28,19,11,79,66,43,29.83,29.72,11,2,12,0.00
2013-12-18,28,24,21,12,7,3,60,49,37,29.95,29.77,17,2,19,0.00
2013-12-19,55,42,24,7,-6,-20,45,14,10,29.91,29.86,21,7,22,0.18
2013-12-20,54,49,44,40,8,-9,73,25,10,29.88,29.77,18,6,18,0.00
2013-12-21,60,56,52,49,42,36,75,61,48,29.80,29.63,17,6,17,0.39
2013-12-22,63,58,54,49,39,31,74,50,33,29.82,29.56,27,9,30,0.30
2013-12-23,54,39,27,41,26,5,73,60,38,30.03,29.78,20,4,21,0.07
2013-12-24,27,20,10,9,-4,-29,53,36,10,30.21,29.97,25,6,28,0.00
2013-12-25,26,17,6,-2,-14,-26,51,28,10,30.21,30.01,13,4,17,0.00
2013-12-26,36,28,22,15,-5,-19,62,28,10,30.10,29.92,30,8,33,0.13
2013-12-27,42,30,19,1,-10,-19,43,19,10,30.11,30.06,24,5,24,0.00
2013-12-28,48,36,31,42,0,-16,16,10,11,30.07,29.90,18,6,18,0.00
2013-12-29,43,40,36,40,31,-10,75,51,10,29.90,29.46,24,5,26,0.79
2013-12-30,37,25,17,28,12,0,70,58,42,29.93,29.64,21,2,25,0.04
2013-12-31,23,21,18,13,5,-2,65,51,32,30.03,29.82,27,4,30,0.17
2014-1-1,46,32,23,4,-6,-17,43,22,10,30.07,29.85,26,6,26,0.00
2014-1-2,31,26,11,13,8,-4,62,47,30,29.85,29.46,17,3,18,0.00